Eureka, Arkansas
Current Conditions -  °F | °C
As of 9:03 PM on Wednesday 26 Nov 2014 (Local Time) from KROG Reporting Station
Broken Clouds Broken Clouds  
Wind Chill: 28°   Ceiling: 2700
Heat Index: 36°   Visibility: 10mi
Dew Point: 25°   Wind: 10mph
Humidity: 65%   Direction: 330°NNW
Pressure: 30.29"   Gusts: NA
Location:  36.4036°N, 93.7443°W
Report Text: KROG 270303Z AUTO 33009KT 10SM BKN027 02/M04 A3029 RMK AO2 TSNO
Loading
Personal Weather Stations






























Interactive Weather Map New forecast layout! Learn more

10-Day Weather Forecast

Advertisements
Track Severe Weather on mobile